Time;durP1;ratioP1;P1;durP2;ratioP2;P2;SDS_P1;SDS_P2;PMS_P1;PMS_P2;Temp;Humidity;BMP_temperature;BMP_pressure;BME280_temperature;BME280_humidity;BME280_pressure;Samples;Min_cycle;Max_cycle;Signal;HPM_P1;HPM_P2
2022/12/16 00:00:35;;;;;;;33.60;15.32;;;;;;;-5.73;100.00;100431.94;6245841;23;20008;-96
2022/12/16 00:03:00;;;;;;;28.42;16.13;;;;;;;-5.79;100.00;100451.97;6247126;23;20088;-95
2022/12/16 00:05:27;;;;;;;31.15;16.95;;;;;;;-5.79;100.00;100436.88;6247947;22;20083;-96
2022/12/16 00:07:54;;;;;;;30.13;16.90;;;;;;;-6.05;100.00;100422.44;6247129;23;20012;-96
2022/12/16 00:10:20;;;;;;;43.30;18.35;;;;;;;-5.96;100.00;100445.97;6247643;23;20414;-96
2022/12/16 00:12:46;;;;;;;34.22;15.57;;;;;;;-6.23;100.00;100424.75;6245771;23;20011;-95
2022/12/16 00:15:11;;;;;;;28.65;16.20;;;;;;;-6.28;100.00;100416.34;6247588;22;20431;-95
2022/12/16 00:17:38;;;;;;;27.55;15.35;;;;;;;-6.33;100.00;100418.78;6249094;23;20004;-95
2022/12/16 00:20:04;;;;;;;30.50;15.50;;;;;;;-6.27;100.00;100430.56;6248199;23;20014;-96
2022/12/16 00:22:30;;;;;;;29.08;16.63;;;;;;;-6.35;100.00;100430.50;6248592;23;20008;-96
2022/12/16 00:24:55;;;;;;;28.17;16.40;;;;;;;-6.17;100.00;100441.56;6248745;22;20449;-96
2022/12/16 00:27:21;;;;;;;36.42;17.10;;;;;;;-6.06;100.00;100428.28;6248179;23;20086;-96
2022/12/16 00:29:46;;;;;;;28.73;16.67;;;;;;;-5.84;100.00;100436.84;6247878;23;20042;-96
2022/12/16 00:32:12;;;;;;;25.60;16.10;;;;;;;-5.60;100.00;100463.88;6248369;23;20000;-95
2022/12/16 00:34:38;;;;;;;24.15;15.63;;;;;;;-5.82;100.00;100441.88;6248526;23;20008;-96
2022/12/16 00:37:03;;;;;;;30.98;17.30;;;;;;;-5.84;100.00;100451.91;6248328;22;20008;-96
2022/12/16 00:39:29;;;;;;;30.60;17.25;;;;;;;-6.15;100.00;100443.25;6248014;23;20087;-95
2022/12/16 00:41:54;;;;;;;35.85;17.70;;;;;;;-6.42;100.00;100442.97;6247781;23;20023;-96
2022/12/16 00:44:20;;;;;;;26.80;16.30;;;;;;;-6.30;100.00;100478.25;6248075;23;20031;-95
2022/12/16 00:46:45;;;;;;;27.77;16.08;;;;;;;-6.62;100.00;100448.59;6248632;22;20004;-96
2022/12/16 00:49:11;;;;;;;30.17;15.57;;;;;;;-6.49;100.00;100473.00;6248384;23;20007;-96
2022/12/16 00:51:36;;;;;;;29.25;15.45;;;;;;;-6.64;100.00;100452.72;6248254;23;20067;-96
2022/12/16 00:54:02;;;;;;;33.20;16.60;;;;;;;-6.69;100.00;100451.84;6248496;23;20023;-96
2022/12/16 00:56:28;;;;;;;23.85;14.05;;;;;;;-6.80;100.00;100438.28;6247455;22;20099;-96
2022/12/16 00:58:53;;;;;;;25.08;14.52;;;;;;;-6.75;100.00;100461.81;6248726;23;20000;-95
2022/12/16 01:01:19;;;;;;;27.70;14.77;;;;;;;-7.01;100.00;100441.38;6247910;23;20011;-96
2022/12/16 01:03:44;;;;;;;31.00;14.15;;;;;;;-6.99;100.00;100455.63;6248449;23;20011;-96
2022/12/16 01:06:14;;;;;;;24.30;14.27;;;;;;;-6.91;100.00;100483.31;6247278;22;20009;-95
2022/12/16 01:08:39;;;;;;;28.23;14.82;;;;;;;-7.13;100.00;100447.88;6247680;23;20001;-96
2022/12/16 01:11:05;;;;;;;32.25;15.90;;;;;;;-6.97;100.00;100473.22;6246601;23;20026;-95
2022/12/16 01:13:31;;;;;;;30.55;14.32;;;;;;;-6.99;100.00;100483.22;6246867;23;20498;-95
2022/12/16 01:16:01;;;;;;;26.38;14.82;;;;;;;-7.04;100.00;100481.47;6246893;22;20012;-95
2022/12/16 01:18:26;;;;;;;30.40;15.30;;;;;;;-7.28;100.00;100451.84;6246636;23;20070;-95
2022/12/16 01:20:52;;;;;;;28.30;13.98;;;;;;;-7.15;100.00;100466.25;6246781;23;20028;-94
2022/12/16 01:23:17;;;;;;;24.92;15.00;;;;;;;-7.16;100.00;100457.03;6245656;23;20012;-95
2022/12/16 01:25:43;;;;;;;26.77;14.88;;;;;;;-7.26;100.00;100455.22;6244935;22;20004;-95
2022/12/16 01:28:09;;;;;;;24.42;14.63;;;;;;;-7.27;100.00;100469.41;6246679;23;19996;-95
2022/12/16 01:30:35;;;;;;;23.05;13.40;;;;;;;-7.25;100.00;100476.97;6247240;23;20026;-95
2022/12/16 01:33:00;;;;;;;26.17;13.40;;;;;;;-7.26;100.00;100490.34;6248614;23;20315;-95
2022/12/16 01:35:26;;;;;;;25.13;15.40;;;;;;;-7.21;100.00;100486.22;6248763;22;20063;-95
2022/12/16 01:37:51;;;;;;;26.40;16.35;;;;;;;-7.29;100.00;100481.09;6248940;23;20105;-94
2022/12/16 01:40:23;;;;;;;29.88;14.80;;;;;;;-7.28;100.00;100504.50;6248560;23;20008;-96
2022/12/16 01:42:48;;;;;;;22.08;13.65;;;;;;;-7.43;100.00;100485.88;6248321;23;20011;-96
2022/12/16 01:45:35;;;;;;;26.95;14.30;;;;;;;-7.44;100.00;100490.84;6248165;22;20008;-95
2022/12/16 01:48:22;;;;;;;21.85;12.95;;;;;;;-7.43;100.00;100508.44;6248527;23;20008;-96
2022/12/16 01:50:49;;;;;;;24.27;14.85;;;;;;;-7.38;100.00;100511.88;6248384;23;20324;-95
2022/12/16 01:53:15;;;;;;;28.70;14.48;;;;;;;-7.39;100.00;100490.13;6248262;23;20031;-96
2022/12/16 01:55:47;;;;;;;23.45;14.30;;;;;;;-7.24;100.00;100528.78;6248043;22;20414;-94
2022/12/16 01:58:22;;;;;;;;;;;;;;;-7.26;100.00;100543.00;6246939;23;20069;-93
2022/12/16 02:00:48;;;;;;;25.10;13.95;;;;;;;-7.43;100.00;100548.56;6248284;23;19911;-95
2022/12/16 02:03:15;;;;;;;21.63;11.75;;;;;;;-7.61;100.00;100523.16;6248304;23;20007;-95
2022/12/16 02:05:42;;;;;;;22.20;13.10;;;;;;;-7.62;100.00;100534.00;6248773;22;19997;-96
2022/12/16 02:08:13;;;;;;;22.23;13.15;;;;;;;-7.57;100.00;100560.00;6248393;23;20004;-96
2022/12/16 02:10:50;;;;;;;;;;;;;;;-7.54;100.00;100565.06;6249380;23;20004;-95
2022/12/16 02:13:22;;;;;;;27.73;14.90;;;;;;;-7.49;100.00;100558.47;6248077;23;19949;-96
2022/12/16 02:16:03;;;;;;;24.10;14.70;;;;;;;-7.52;100.00;100558.41;6248157;22;20019;-95
2022/12/16 02:19:05;;;;;;;23.88;14.75;;;;;;;-7.54;100.00;100555.03;6248203;23;20010;-95
2022/12/16 02:21:51;;;;;;;24.92;13.63;;;;;;;-7.48;100.00;100557.66;6247843;23;20036;-95
2022/12/16 02:24:45;;;;;;;23.08;13.35;;;;;;;-7.49;100.00;100560.97;6247643;23;20478;-94
2022/12/16 02:27:16;;;;;;;24.60;14.43;;;;;;;-7.62;100.00;100572.44;6248404;22;20008;-95
2022/12/16 02:30:09;;;;;;;21.95;12.95;;;;;;;-7.64;100.00;100573.22;6249601;23;20008;-96
2022/12/16 02:33:12;;;;;;;22.98;13.25;;;;;;;-7.63;100.00;100563.25;6250166;23;20435;-96
2022/12/16 02:35:49;;;;;;;20.00;13.32;;;;;;;-7.63;100.00;100564.88;6249275;22;20012;-95
2022/12/16 02:38:23;;;;;;;26.83;14.70;;;;;;;-7.65;100.00;100566.53;6249105;23;20035;-96
2022/12/16 02:41:16;;;;;;;30.08;15.00;;;;;;;-7.82;100.00;100534.50;6249290;23;20009;-94
2022/12/16 02:43:57;;;;;;;29.27;14.77;;;;;;;-7.72;100.00;100549.69;6248502;23;20011;-95
2022/12/16 02:46:26;;;;;;;22.85;14.45;;;;;;;-7.89;100.00;100527.66;6249606;22;20004;-94
2022/12/16 02:48:53;;;;;;;23.45;13.73;;;;;;;-7.90;100.00;100526.00;6249419;23;20378;-95
2022/12/16 02:51:22;;;;;;;24.67;15.60;;;;;;;-8.01;100.00;100533.28;6249017;23;20059;-95
2022/12/16 02:53:51;;;;;;;30.80;15.85;;;;;;;-7.92;100.00;100557.69;6249185;23;20000;-95
2022/12/16 02:56:23;;;;;;;23.55;14.13;;;;;;;-7.90;100.00;100568.59;6250318;22;19996;-96
2022/12/16 02:59:14;;;;;;;28.45;15.30;;;;;;;-7.92;100.00;100540.16;6248948;23;20015;-94
2022/12/16 03:02:04;;;;;;;28.02;15.15;;;;;;;-7.97;100.00;100540.06;6249571;23;20008;-96
2022/12/16 03:04:41;;;;;;;29.67;15.43;;;;;;;-7.84;100.00;100576.19;6250152;23;20012;-94
2022/12/16 03:07:12;;;;;;;25.38;14.73;;;;;;;-7.98;100.00;100547.53;6248558;22;20210;-95
2022/12/16 03:09:40;;;;;;;29.92;17.70;;;;;;;-8.07;100.00;100540.69;6247393;23;20060;-95
2022/12/16 03:12:11;;;;;;;24.33;15.57;;;;;;;-7.98;100.00;100547.53;6249695;23;20008;-96
2022/12/16 03:14:41;;;;;;;28.83;16.90;;;;;;;-8.00;100.00;100544.16;6248129;23;20008;-96
2022/12/16 03:17:11;;;;;;;26.45;16.33;;;;;;;-7.94;100.00;100539.28;6248040;22;20036;-96
2022/12/16 03:19:40;;;;;;;30.48;16.27;;;;;;;-7.93;100.00;100548.47;6249385;23;19996;-96
2022/12/16 03:22:19;;;;;;;24.90;15.32;;;;;;;-7.87;100.00;100547.75;6249759;23;20000;-95
2022/12/16 03:24:45;;;;;;;27.80;15.43;;;;;;;-7.83;100.00;100547.81;6248269;23;20042;-96
2022/12/16 03:27:39;;;;;;;30.17;18.38;;;;;;;-7.70;100.00;100575.63;6248460;22;20004;-95
2022/12/16 03:30:15;;;;;;;25.38;14.52;;;;;;;-7.96;100.00;100541.72;6248685;23;20086;-95
2022/12/16 03:32:54;;;;;;;30.90;17.52;;;;;;;-7.78;100.00;100566.31;6248064;23;20031;-96
2022/12/16 03:35:27;;;;;;;22.90;14.60;;;;;;;-7.79;100.00;100569.63;6248665;22;20004;-95
2022/12/16 03:37:56;;;;;;;37.13;17.13;;;;;;;-7.91;100.00;100559.34;6247889;23;20046;-95
2022/12/16 03:40:24;;;;;;;25.42;17.15;;;;;;;-7.88;100.00;100563.59;6248004;23;20004;-95
2022/12/16 03:42:52;;;;;;;26.65;16.00;;;;;;;-7.97;100.00;100546.72;6248394;23;20008;-96
2022/12/16 03:45:23;;;;;;;30.00;16.80;;;;;;;-7.98;100.00;100553.38;6247982;22;20004;-94
2022/12/16 03:47:50;;;;;;;29.03;16.40;;;;;;;-8.01;100.00;100552.50;6248022;23;20005;-95
2022/12/16 03:50:20;;;;;;;25.40;16.05;;;;;;;-8.11;100.00;100541.44;6249033;23;20000;-95
2022/12/16 03:52:45;;;;;;;23.55;13.57;;;;;;;-8.07;100.00;100548.22;6248950;23;20046;-95
2022/12/16 03:55:11;;;;;;;27.70;14.73;;;;;;;-8.10;100.00;100542.28;6248011;22;20004;-95
2022/12/16 03:57:37;;;;;;;33.92;16.25;;;;;;;-8.13;100.00;100547.22;6248594;23;20012;-95
2022/12/16 04:00:04;;;;;;;28.55;15.45;;;;;;;-8.18;100.00;100542.97;6248187;23;20070;-95
2022/12/16 04:02:29;;;;;;;24.25;16.05;;;;;;;-8.13;100.00;100572.28;6249085;23;20002;-95
2022/12/16 04:04:55;;;;;;;28.05;16.40;;;;;;;-8.07;100.00;100560.72;6248918;22;20012;-95
2022/12/16 04:07:20;;;;;;;27.33;17.75;;;;;;;-7.63;100.00;100583.28;6249272;23;19996;-95
2022/12/16 04:09:47;;;;;;;28.90;17.77;;;;;;;-7.45;100.00;100560.22;6248814;23;20004;-95
2022/12/16 04:26:03;;;;;;;34.40;17.33;;;;;;;-7.98;100.00;100582.59;6249023;22;20070;-95
2022/12/16 04:28:29;;;;;;;28.60;17.73;;;;;;;-7.86;100.00;100607.06;6247691;23;20008;-96
2022/12/16 04:30:55;;;;;;;27.15;16.50;;;;;;;-8.05;100.00;100568.25;6247534;23;20010;-96
